createdAt,value
2023-02-11T00:00:45.541Z,70.60
2023-02-11T00:01:45.556Z,69.60
2023-02-11T00:02:47.816Z,70.60
2023-02-11T00:03:46.582Z,73.90
2023-02-11T00:04:45.469Z,72.30
2023-02-11T00:05:45.450Z,72.20
2023-02-11T00:06:45.460Z,68.00
2023-02-11T00:07:45.415Z,69.90
2023-02-11T00:08:45.400Z,69.10
2023-02-11T00:09:45.381Z,77.70
2023-02-11T00:10:45.359Z,73.70
2023-02-11T00:11:45.372Z,67.40
2023-02-11T00:12:45.326Z,69.00
2023-02-11T00:13:45.310Z,80.70
2023-02-11T00:14:45.288Z,73.00
2023-02-11T00:15:45.280Z,74.30
2023-02-11T00:16:45.334Z,68.90
2023-02-11T00:17:45.242Z,69.60
2023-02-11T00:18:45.218Z,71.80
2023-02-11T00:19:45.199Z,72.30
2023-02-11T00:20:45.183Z,69.80
2023-02-11T00:21:45.197Z,71.40
2023-02-11T00:22:45.149Z,78.00
2023-02-11T00:23:45.133Z,75.20
2023-02-11T00:24:45.117Z,77.50
2023-02-11T00:25:45.101Z,79.90
2023-02-11T00:26:45.108Z,77.80
2023-02-11T00:27:45.060Z,76.50
2023-02-11T00:28:45.043Z,79.30
2023-02-11T00:29:45.019Z,77.90
2023-02-11T00:30:45.128Z,76.90
2023-02-11T00:31:45.257Z,82.70
2023-02-11T00:32:44.969Z,78.10
2023-02-11T00:33:44.946Z,77.00
2023-02-11T00:34:44.929Z,82.60
2023-02-11T00:35:44.908Z,82.50
2023-02-11T00:36:44.918Z,76.80
2023-02-11T00:37:44.871Z,78.60
2023-02-11T00:38:44.858Z,80.80
2023-02-11T00:39:44.837Z,82.10
2023-02-11T00:40:44.817Z,84.00
2023-02-11T00:41:44.844Z,78.10
2023-02-11T00:42:44.784Z,79.30
2023-02-11T00:43:44.763Z,76.30
2023-02-11T00:44:44.746Z,82.20
2023-02-11T00:45:44.848Z,76.30
2023-02-11T00:46:44.853Z,78.10
2023-02-11T00:47:44.690Z,79.30
2023-02-11T00:48:44.696Z,79.20
2023-02-11T00:49:44.654Z,79.40
2023-02-11T00:50:44.634Z,73.30
2023-02-11T00:51:44.645Z,74.40
2023-02-11T00:52:44.593Z,77.10
2023-02-11T00:53:44.580Z,81.50
2023-02-11T00:54:44.560Z,79.00
2023-02-11T00:55:44.540Z,80.00
2023-02-11T00:56:44.551Z,79.20
2023-02-11T00:57:44.505Z,78.20
2023-02-11T00:58:44.483Z,80.10
2023-02-11T00:59:44.471Z,75.90
2023-02-11T01:00:44.449Z,72.90
2023-02-11T01:01:44.570Z,76.00
2023-02-11T01:02:44.430Z,75.90
2023-02-11T01:03:44.400Z,81.70
2023-02-11T01:04:44.377Z,76.30
2023-02-11T01:05:44.363Z,79.10
2023-02-11T01:06:44.377Z,84.20
2023-02-11T01:07:44.331Z,77.70
2023-02-11T01:08:44.311Z,80.00
2023-02-11T01:09:44.293Z,75.00
2023-02-11T01:10:44.278Z,74.50
2023-02-11T01:11:44.286Z,73.80
2023-02-11T01:12:44.243Z,77.80
2023-02-11T01:13:44.220Z,75.40
2023-02-11T01:14:44.204Z,75.20
2023-02-11T01:15:44.222Z,76.10
2023-02-11T01:16:44.195Z,79.20
2023-02-11T01:17:44.151Z,75.30
2023-02-11T01:18:44.157Z,72.30
2023-02-11T01:19:44.163Z,75.00
2023-02-11T01:20:44.099Z,77.70
2023-02-11T01:21:44.107Z,74.50
2023-02-11T01:22:44.053Z,75.50
2023-02-11T01:23:45.054Z,79.20
2023-02-11T01:24:44.026Z,73.40
2023-02-11T01:25:44.019Z,74.70
2023-02-11T01:26:44.021Z,76.60
2023-02-11T01:27:43.969Z,76.70
2023-02-11T01:28:43.952Z,76.00
2023-02-11T01:29:43.942Z,75.50
2023-02-11T01:30:43.975Z,80.90
2023-02-11T01:31:43.946Z,72.30
2023-02-11T01:32:43.883Z,81.10
2023-02-11T01:33:43.862Z,70.60
2023-02-11T01:34:43.848Z,72.30
2023-02-11T01:35:43.828Z,80.40
2023-02-11T01:36:43.843Z,72.50
2023-02-11T01:37:43.793Z,71.50
2023-02-11T01:38:43.773Z,76.10
2023-02-11T01:39:43.766Z,78.60
2023-02-11T01:40:43.739Z,76.90
2023-02-11T01:41:43.751Z,77.00
2023-02-11T01:42:43.698Z,79.10
2023-02-11T01:43:43.686Z,76.90
2023-02-11T01:44:43.664Z,79.40
2023-02-11T01:45:43.646Z,82.00
2023-02-11T01:46:43.696Z,77.30
2023-02-11T01:47:43.618Z,77.20
2023-02-11T01:48:43.592Z,74.60
2023-02-11T01:49:43.566Z,73.00
2023-02-11T01:50:44.557Z,78.30
2023-02-11T01:51:43.573Z,78.70
2023-02-11T01:52:43.526Z,75.40
2023-02-11T01:53:43.510Z,76.90
2023-02-11T01:54:43.485Z,79.20
2023-02-11T01:55:43.473Z,75.00
2023-02-11T01:56:43.481Z,78.40
2023-02-11T01:57:43.426Z,83.00
2023-02-11T01:58:43.413Z,77.70
2023-02-11T01:59:43.420Z,80.70
2023-02-11T02:00:43.376Z,79.70
2023-02-11T02:01:43.463Z,73.50
2023-02-11T02:02:43.337Z,77.50
2023-02-11T02:03:43.361Z,80.60
2023-02-11T02:04:43.325Z,80.30
2023-02-11T02:05:43.276Z,76.30
2023-02-11T02:06:44.291Z,79.80
2023-02-11T02:07:43.244Z,78.30
2023-02-11T02:08:43.229Z,75.60
2023-02-11T02:09:43.205Z,80.90
2023-02-11T02:10:43.186Z,74.40
2023-02-11T02:11:43.211Z,77.20
2023-02-11T02:12:43.153Z,78.90
2023-02-11T02:13:43.149Z,74.30
2023-02-11T02:14:43.147Z,73.70
2023-02-11T02:15:43.118Z,79.20
2023-02-11T02:16:43.160Z,75.20
2023-02-11T02:17:43.091Z,75.80
2023-02-11T02:18:43.037Z,73.20
2023-02-11T02:19:43.020Z,73.20
2023-02-11T02:20:43.002Z,76.40
2023-02-11T02:21:42.990Z,76.30
2023-02-11T02:22:43.005Z,71.60
2023-02-11T02:23:42.948Z,75.10
2023-02-11T02:24:42.930Z,77.90
2023-02-11T02:25:42.943Z,76.90
2023-02-11T02:26:42.893Z,78.70
2023-02-11T02:27:42.908Z,73.40
2023-02-11T02:28:42.858Z,74.40
2023-02-11T02:29:42.837Z,75.90
2023-02-11T02:30:42.846Z,79.70
2023-02-11T02:31:42.838Z,77.30
2023-02-11T02:32:42.810Z,72.90
2023-02-11T02:33:42.772Z,81.50
2023-02-11T02:34:42.745Z,79.00
2023-02-11T02:35:42.726Z,74.70
2023-02-11T02:36:42.713Z,81.70
2023-02-11T02:37:42.723Z,80.80
2023-02-11T02:38:42.672Z,80.30
2023-02-11T02:39:42.653Z,82.80
2023-02-11T02:40:42.629Z,79.70
2023-02-11T02:41:42.612Z,80.20
2023-02-11T02:42:42.625Z,77.50
2023-02-11T02:43:42.578Z,76.20
2023-02-11T02:44:42.563Z,80.20
2023-02-11T02:45:42.571Z,80.50
2023-02-11T02:46:42.584Z,76.20
2023-02-11T02:47:42.506Z,87.30
2023-02-11T02:48:42.486Z,77.90
2023-02-11T02:49:42.469Z,78.30
2023-02-11T02:50:42.493Z,80.30
2023-02-11T02:51:42.435Z,74.40
2023-02-11T02:52:42.427Z,74.90
2023-02-11T02:53:42.398Z,79.30
2023-02-11T02:54:42.373Z,76.90
2023-02-11T02:55:42.387Z,78.50
2023-02-11T02:56:42.347Z,76.70
2023-02-11T02:57:42.349Z,81.10
2023-02-11T02:58:42.304Z,75.30
2023-02-11T02:59:42.293Z,76.60
2023-02-11T03:00:42.343Z,79.10
2023-02-11T03:01:42.251Z,75.20
2023-02-11T03:02:42.274Z,84.20
2023-02-11T03:03:42.242Z,78.10
2023-02-11T03:04:42.207Z,81.70
2023-02-11T03:05:42.178Z,74.30
2023-02-11T03:06:42.159Z,79.40
2023-02-11T03:07:42.175Z,78.60
2023-02-11T03:08:42.129Z,75.20
2023-02-11T03:09:42.108Z,73.30
2023-02-11T03:10:42.089Z,78.60
2023-02-11T03:11:42.114Z,75.40
2023-02-11T03:12:42.046Z,72.50
2023-02-11T03:13:42.036Z,74.00
2023-02-11T03:14:42.009Z,72.10
2023-02-11T03:15:43.000Z,79.00
2023-02-11T03:16:42.047Z,77.10
2023-02-11T03:17:41.988Z,74.90
2023-02-11T03:18:41.937Z,73.60
2023-02-11T03:19:42.926Z,76.80
2023-02-11T03:20:41.914Z,75.70
2023-02-11T03:21:41.893Z,77.20
2023-02-11T03:22:41.953Z,81.20
2023-02-11T03:23:41.863Z,81.20
2023-02-11T03:24:41.835Z,75.80
2023-02-11T03:25:41.811Z,79.60
2023-02-11T03:26:41.799Z,78.80
2023-02-11T03:27:41.814Z,77.00
2023-02-11T03:28:41.760Z,78.90
2023-02-11T03:29:41.741Z,82.00
2023-02-11T03:30:41.751Z,76.70
2023-02-11T03:31:41.789Z,77.90
2023-02-11T03:32:41.711Z,75.40
2023-02-11T03:33:41.667Z,75.90
2023-02-11T03:34:41.656Z,73.30
2023-02-11T03:35:41.629Z,73.20
2023-02-11T03:36:41.610Z,77.80
2023-02-11T03:37:41.625Z,79.80
2023-02-11T03:38:41.575Z,73.70
2023-02-11T03:39:41.568Z,70.30
2023-02-11T03:40:41.538Z,72.20
2023-02-11T03:41:41.515Z,70.00
2023-02-11T03:42:42.542Z,71.70
2023-02-11T03:43:41.488Z,75.10
2023-02-11T03:44:41.465Z,75.30
2023-02-11T03:45:41.504Z,72.00
2023-02-11T03:46:41.432Z,69.90
2023-02-11T03:47:41.443Z,74.90
2023-02-11T03:48:41.392Z,73.30
2023-02-11T03:49:41.375Z,72.80
2023-02-11T03:50:41.356Z,68.40
2023-02-11T03:51:41.334Z,68.90
2023-02-11T03:52:41.343Z,69.70
2023-02-11T03:53:41.296Z,68.50
2023-02-11T03:54:41.278Z,73.30
2023-02-11T03:55:41.260Z,65.00
2023-02-11T03:56:41.241Z,67.40
2023-02-11T03:57:41.250Z,66.40
2023-02-11T03:58:41.295Z,67.80
2023-02-11T03:59:41.182Z,67.90
2023-02-11T04:00:41.204Z,67.60
2023-02-11T04:01:41.147Z,66.90
2023-02-11T04:02:41.161Z,68.20
2023-02-11T04:03:41.112Z,69.70
2023-02-11T04:04:41.092Z,69.90
2023-02-11T04:05:41.075Z,65.60
2023-02-11T04:06:41.059Z,68.30
2023-02-11T04:07:41.070Z,62.50
2023-02-11T04:08:41.018Z,66.50
2023-02-11T04:09:41.000Z,65.00
2023-02-11T04:10:40.987Z,64.70
2023-02-11T04:11:40.966Z,69.40
2023-02-11T04:12:40.980Z,66.20
2023-02-11T04:13:40.930Z,63.60
2023-02-11T04:14:40.912Z,67.60
2023-02-11T04:15:40.893Z,67.20
2023-02-11T04:16:40.943Z,67.20
2023-02-11T04:17:40.886Z,67.20
2023-02-11T04:18:40.849Z,66.40
2023-02-11T04:19:40.831Z,68.10
2023-02-11T04:20:40.797Z,69.20
2023-02-11T04:21:40.778Z,66.00
2023-02-11T04:22:40.802Z,74.50
2023-02-11T04:23:40.741Z,67.50
2023-02-11T04:24:40.724Z,64.30
2023-02-11T04:25:40.705Z,67.30
2023-02-11T04:26:40.691Z,65.40
2023-02-11T04:27:40.701Z,66.50
2023-02-11T04:28:40.646Z,67.70
2023-02-11T04:29:40.635Z,67.60
2023-02-11T04:30:40.653Z,69.60
2023-02-11T04:31:40.637Z,75.20
2023-02-11T04:32:40.608Z,65.50
2023-02-11T04:33:40.556Z,69.40
2023-02-11T04:34:40.545Z,68.20
2023-02-11T04:35:40.514Z,67.50
2023-02-11T04:36:40.499Z,69.60
2023-02-11T04:37:40.514Z,66.00
2023-02-11T04:38:40.461Z,69.10
2023-02-11T04:39:40.442Z,72.10
2023-02-11T04:40:40.424Z,71.60
2023-02-11T04:41:40.405Z,65.80
2023-02-11T04:42:40.423Z,72.50
2023-02-11T04:43:40.364Z,64.80
2023-02-11T04:44:40.346Z,69.60
2023-02-11T04:45:40.393Z,72.00
2023-02-11T04:46:40.311Z,67.80
2023-02-11T04:47:40.322Z,71.50
2023-02-11T04:48:40.269Z,67.40
2023-02-11T04:49:40.255Z,66.50
2023-02-11T04:50:40.240Z,70.40
2023-02-11T04:51:40.214Z,71.10
2023-02-11T04:52:40.227Z,68.50
2023-02-11T04:53:40.185Z,73.20
2023-02-11T04:54:40.160Z,69.80
2023-02-11T04:55:40.145Z,69.20
2023-02-11T04:56:40.121Z,72.20
2023-02-11T04:57:40.134Z,67.20
2023-02-11T04:58:40.086Z,69.50
2023-02-11T04:59:40.066Z,67.30
2023-02-11T05:00:40.046Z,71.20
2023-02-11T05:01:40.111Z,74.50
2023-02-11T05:02:40.044Z,73.30
2023-02-11T05:03:39.992Z,73.30
2023-02-11T05:04:39.975Z,73.00
2023-02-11T05:05:39.955Z,67.00
2023-02-11T05:06:39.938Z,74.40
2023-02-11T05:07:39.953Z,76.80
2023-02-11T05:08:39.895Z,69.50
2023-02-11T05:09:39.883Z,72.20
2023-02-11T05:10:39.860Z,72.00
2023-02-11T05:11:39.848Z,68.60
2023-02-11T05:12:39.859Z,71.70
2023-02-11T05:13:39.804Z,72.20
2023-02-11T05:14:39.788Z,70.40
2023-02-11T05:15:39.769Z,71.60
2023-02-11T05:16:39.821Z,71.80
2023-02-11T05:17:39.762Z,71.30
2023-02-11T05:18:39.713Z,73.80
2023-02-11T05:19:39.704Z,73.10
2023-02-11T05:20:39.674Z,70.70
2023-02-11T05:21:42.343Z,79.80
2023-02-11T05:22:40.665Z,70.60
2023-02-11T05:23:39.623Z,72.10
2023-02-11T05:24:39.611Z,74.40
2023-02-11T05:25:39.579Z,71.60
2023-02-11T05:26:39.567Z,77.40
2023-02-11T05:27:39.573Z,77.40
2023-02-11T05:28:39.532Z,73.20
2023-02-11T05:29:39.505Z,69.50
2023-02-11T05:30:39.530Z,75.80
2023-02-11T05:31:39.486Z,74.00
2023-02-11T05:32:39.490Z,70.40
2023-02-11T05:33:39.433Z,69.80
2023-02-11T05:34:39.416Z,71.50
2023-02-11T05:35:39.396Z,74.00
2023-02-11T05:36:39.379Z,70.40
2023-02-11T05:37:39.423Z,72.30
2023-02-11T05:38:39.338Z,68.70
2023-02-11T05:39:39.319Z,69.30
2023-02-11T05:40:39.298Z,71.40
2023-02-11T05:41:39.281Z,66.30
2023-02-11T05:42:39.292Z,71.70
2023-02-11T05:43:39.278Z,69.60
2023-02-11T05:44:39.230Z,73.30
2023-02-11T05:45:39.204Z,70.30
2023-02-11T05:46:39.207Z,70.40
2023-02-11T05:47:39.169Z,67.70
2023-02-11T05:48:39.186Z,70.40
2023-02-11T05:49:39.134Z,69.50
2023-02-11T05:50:39.122Z,69.40
2023-02-11T05:51:39.098Z,71.00
2023-02-11T05:52:39.136Z,68.80
2023-02-11T05:53:39.084Z,71.60
2023-02-11T05:54:39.038Z,70.00
2023-02-11T05:55:39.021Z,68.00
2023-02-11T05:56:38.999Z,67.60
2023-02-11T05:57:38.980Z,69.50
2023-02-11T05:58:38.981Z,74.10
2023-02-11T05:59:39.953Z,68.00
2023-02-11T06:00:38.928Z,69.50
2023-02-11T06:01:38.911Z,70.30
2023-02-11T06:02:38.935Z,71.30
2023-02-11T06:03:38.968Z,69.90
2023-02-11T06:04:38.848Z,73.50
2023-02-11T06:05:38.832Z,69.50
2023-02-11T06:06:38.812Z,78.20
2023-02-11T06:07:38.793Z,72.60
2023-02-11T06:08:39.451Z,75.40
2023-02-11T06:09:39.752Z,72.60
2023-02-11T06:10:38.734Z,74.00
2023-02-11T06:11:38.714Z,68.10
2023-02-11T06:12:38.694Z,78.00
2023-02-11T06:13:38.704Z,70.90
2023-02-11T06:14:38.660Z,71.30
2023-02-11T06:15:38.667Z,68.50
2023-02-11T06:16:38.629Z,71.10
2023-02-11T06:17:38.607Z,73.30
2023-02-11T06:18:38.614Z,70.90
2023-02-11T06:19:38.566Z,70.80
2023-02-11T06:20:38.549Z,69.70
2023-02-11T06:21:44.225Z,69.10
2023-02-11T06:22:40.513Z,72.60
2023-02-11T06:23:38.527Z,77.80
2023-02-11T06:24:59.918Z,72.80
2023-02-11T06:25:40.462Z,72.00
2023-02-11T06:26:38.444Z,74.30
2023-02-11T06:27:38.437Z,69.70
2023-02-11T06:28:41.674Z,71.20
2023-02-11T06:29:39.385Z,80.80
2023-02-11T06:30:38.366Z,72.10
2023-02-11T06:31:38.527Z,71.20
2023-02-11T06:32:46.155Z,75.20
2023-02-11T06:33:40.349Z,72.90
2023-02-11T06:34:38.291Z,75.00
2023-02-11T06:35:38.277Z,69.40
2023-02-11T06:36:38.260Z,76.30
2023-02-11T06:37:38.244Z,69.20
2023-02-11T06:38:38.249Z,69.80
2023-02-11T06:39:38.202Z,72.90
2023-02-11T06:40:38.295Z,70.20
2023-02-11T06:41:38.174Z,73.40
2023-02-11T06:42:38.148Z,71.10
2023-02-11T06:43:38.163Z,80.60
2023-02-11T06:44:38.113Z,67.20
2023-02-11T06:45:38.085Z,70.40
2023-02-11T06:46:38.159Z,72.90
2023-02-11T06:47:38.064Z,63.80
2023-02-11T06:48:38.068Z,76.80
2023-02-11T06:49:38.018Z,74.70
2023-02-11T06:50:38.000Z,72.90
2023-02-11T06:51:37.969Z,72.60
2023-02-11T06:52:38.965Z,75.00
2023-02-11T06:53:37.972Z,71.90
2023-02-11T06:54:37.921Z,65.70
2023-02-11T06:55:37.905Z,70.40
2023-02-11T06:56:37.880Z,70.50
2023-02-11T06:57:37.866Z,69.70
2023-02-11T06:58:37.874Z,70.50
2023-02-11T06:59:37.826Z,68.30
2023-02-11T07:00:37.812Z,72.80
2023-02-11T07:01:37.851Z,72.90
2023-02-11T07:02:37.818Z,73.50
2023-02-11T07:03:37.781Z,71.00
2023-02-11T07:04:37.729Z,67.80
2023-02-11T07:05:37.714Z,76.80
2023-02-11T07:06:37.699Z,74.20
2023-02-11T07:07:37.697Z,74.30
2023-02-11T07:08:37.691Z,71.10
2023-02-11T07:09:37.676Z,71.50
2023-02-11T07:10:37.619Z,64.60
2023-02-11T07:11:37.602Z,71.70
2023-02-11T07:12:37.587Z,65.80
2023-02-11T07:13:37.564Z,73.90
2023-02-11T07:14:37.581Z,71.50
2023-02-11T07:15:37.536Z,69.30
2023-02-11T07:16:37.575Z,74.00
2023-02-11T07:17:37.501Z,75.00
2023-02-11T07:18:37.468Z,75.00
2023-02-11T07:19:38.486Z,74.30
2023-02-11T07:20:37.439Z,73.60
2023-02-11T07:21:37.424Z,73.60
2023-02-11T07:22:37.404Z,77.50
2023-02-11T07:23:37.410Z,73.30
2023-02-11T07:24:37.362Z,74.10
2023-02-11T07:25:37.347Z,70.30
2023-02-11T07:26:37.321Z,73.70
2023-02-11T07:27:37.302Z,75.80
2023-02-11T07:28:37.390Z,77.70
2023-02-11T07:29:37.263Z,82.30
2023-02-11T07:30:37.242Z,81.40
2023-02-11T07:31:37.316Z,73.60
2023-02-11T07:32:37.205Z,76.30
2023-02-11T07:33:37.238Z,72.40
2023-02-11T07:34:37.189Z,77.70
2023-02-11T07:35:37.154Z,71.10
2023-02-11T07:36:37.135Z,71.50
2023-02-11T07:37:37.116Z,74.90
2023-02-11T07:38:37.124Z,71.40
2023-02-11T07:39:37.076Z,76.80
2023-02-11T07:40:37.059Z,71.30
2023-02-11T07:41:38.093Z,71.10
2023-02-11T07:42:38.023Z,71.60
2023-02-11T07:43:37.041Z,71.50
2023-02-11T07:44:36.989Z,69.30
2023-02-11T07:45:36.965Z,70.60
2023-02-11T07:46:37.024Z,70.40
2023-02-11T07:47:36.929Z,67.80
2023-02-11T07:48:36.942Z,66.80
2023-02-11T07:49:36.904Z,72.40
2023-02-11T07:50:36.877Z,65.70
2023-02-11T07:51:36.856Z,66.30
2023-02-11T07:52:36.837Z,72.40
2023-02-11T07:53:36.850Z,66.20
2023-02-11T07:54:36.824Z,69.80
2023-02-11T07:55:36.778Z,71.50
2023-02-11T07:56:36.761Z,66.70
2023-02-11T07:57:36.742Z,65.20
2023-02-11T07:58:36.764Z,68.80
2023-02-11T07:59:36.710Z,71.20
2023-02-11T08:00:36.717Z,72.50
2023-02-11T08:01:36.673Z,65.70
2023-02-11T08:02:36.673Z,66.50
2023-02-11T08:03:36.681Z,70.20
2023-02-11T08:04:36.617Z,62.00
2023-02-11T08:05:36.593Z,66.30
2023-02-11T08:06:36.599Z,69.00
2023-02-11T08:07:36.558Z,59.30
2023-02-11T08:08:36.567Z,62.60
2023-02-11T08:09:36.534Z,61.20
2023-02-11T08:10:36.509Z,65.10
2023-02-11T08:11:36.481Z,66.40
2023-02-11T08:12:36.466Z,64.60
2023-02-11T08:13:36.482Z,64.70
2023-02-11T08:14:36.434Z,62.20
2023-02-11T08:15:36.420Z,63.90
2023-02-11T08:16:36.446Z,62.10
2023-02-11T08:17:36.378Z,62.40
2023-02-11T08:18:36.405Z,66.30
2023-02-11T08:19:36.338Z,63.80
2023-02-11T08:20:36.316Z,62.70
2023-02-11T08:21:36.301Z,67.90
2023-02-11T08:22:36.294Z,62.30
2023-02-11T08:23:36.283Z,68.30
2023-02-11T08:24:36.233Z,64.00
2023-02-11T08:25:36.219Z,65.60
2023-02-11T08:26:36.202Z,67.30
2023-02-11T08:27:36.191Z,65.20
2023-02-11T08:28:36.743Z,77.30
2023-02-11T08:29:36.155Z,62.60
2023-02-11T08:30:36.133Z,65.10
2023-02-11T08:31:36.237Z,64.80
2023-02-11T08:32:36.092Z,61.00
2023-02-11T08:33:36.103Z,63.20
2023-02-11T08:34:36.057Z,60.00
2023-02-11T08:35:36.030Z,61.20
2023-02-11T08:36:36.017Z,67.90
2023-02-11T08:37:35.999Z,68.80
2023-02-11T08:38:36.004Z,63.10
2023-02-11T08:39:35.959Z,67.40
2023-02-11T08:40:35.967Z,65.70
2023-02-11T08:41:35.922Z,64.00
2023-02-11T08:42:35.908Z,67.60
2023-02-11T08:43:35.918Z,62.10
2023-02-11T08:44:35.867Z,65.70
2023-02-11T08:45:35.938Z,61.00
2023-02-11T08:46:35.835Z,65.60
2023-02-11T08:47:35.805Z,70.40
2023-02-11T08:48:35.820Z,65.30
2023-02-11T08:49:35.768Z,70.30
2023-02-11T08:50:35.781Z,63.20
2023-02-11T08:51:35.745Z,67.60
2023-02-11T08:52:35.713Z,64.70
2023-02-11T08:53:35.732Z,67.30
2023-02-11T08:54:35.677Z,69.80
2023-02-11T08:55:35.658Z,71.70
2023-02-11T08:56:35.643Z,70.60
2023-02-11T08:57:35.627Z,65.50
2023-02-11T08:58:35.602Z,63.40
2023-02-11T08:59:35.619Z,61.10
2023-02-11T09:00:35.566Z,65.30
2023-02-11T09:01:35.626Z,66.70
2023-02-11T09:02:35.574Z,66.50
2023-02-11T09:03:35.526Z,63.40
2023-02-11T09:04:35.525Z,66.10
2023-02-11T09:05:35.475Z,68.20
2023-02-11T09:06:35.458Z,66.10
2023-02-11T09:07:35.440Z,67.00
2023-02-11T09:08:35.422Z,62.50
2023-02-11T09:09:35.433Z,68.60
2023-02-11T09:10:35.386Z,65.20
2023-02-11T09:11:35.371Z,65.70
2023-02-11T09:12:35.345Z,66.80
2023-02-11T09:13:35.330Z,66.50
2023-02-11T09:14:35.339Z,66.70
2023-02-11T09:15:35.292Z,68.60
2023-02-11T09:16:35.341Z,63.10
2023-02-11T09:17:35.249Z,65.10
2023-02-11T09:18:35.231Z,59.70
2023-02-11T09:19:35.243Z,56.30
2023-02-11T09:20:35.210Z,59.00
2023-02-11T09:21:35.176Z,61.60
2023-02-11T09:22:35.159Z,61.20
2023-02-11T09:23:35.177Z,58.40
2023-02-11T09:24:35.148Z,58.40
2023-02-11T09:25:35.102Z,57.60
2023-02-11T09:26:35.081Z,59.40
2023-02-11T09:27:35.067Z,59.60
2023-02-11T09:28:35.106Z,60.30
2023-02-11T09:29:35.077Z,59.40
2023-02-11T09:30:35.104Z,58.60
2023-02-11T09:31:35.286Z,58.00
2023-02-11T09:32:34.983Z,56.80
2023-02-11T09:33:34.955Z,60.30
2023-02-11T09:34:34.971Z,59.80
2023-02-11T09:35:34.926Z,58.80
2023-02-11T09:36:34.923Z,56.80
2023-02-11T09:37:37.257Z,54.00
2023-02-11T09:38:35.879Z,59.20
2023-02-11T09:39:35.882Z,54.70
2023-02-11T09:40:34.853Z,55.10
2023-02-11T09:41:34.821Z,57.30
2023-02-11T09:42:34.799Z,49.60
2023-02-11T09:43:34.780Z,53.40
2023-02-11T09:44:34.817Z,48.50
2023-02-11T09:45:34.753Z,47.30
2023-02-11T09:46:34.764Z,51.80
2023-02-11T09:47:34.721Z,50.30
2023-02-11T09:48:34.697Z,50.20
2023-02-11T09:49:34.706Z,48.60
2023-02-11T09:50:34.671Z,52.90
2023-02-11T09:51:34.643Z,52.20
2023-02-11T09:52:34.636Z,51.40
2023-02-11T09:53:34.605Z,50.50
2023-02-11T09:54:34.618Z,53.20
2023-02-11T09:55:34.577Z,55.40
2023-02-11T09:56:34.583Z,50.80
2023-02-11T09:57:34.533Z,49.50
2023-02-11T09:58:34.523Z,47.40
2023-02-11T09:59:34.527Z,44.80
2023-02-11T10:00:34.497Z,49.10
2023-02-11T10:01:34.495Z,47.10
2023-02-11T10:02:34.442Z,44.10
2023-02-11T10:03:34.475Z,47.90
2023-02-11T10:04:34.489Z,50.00
2023-02-11T10:05:34.401Z,47.60
2023-02-11T10:06:34.372Z,48.80
2023-02-11T10:07:34.360Z,46.90
2023-02-11T10:08:34.338Z,46.60
2023-02-11T10:09:34.347Z,47.50
2023-02-11T10:10:34.305Z,48.80
2023-02-11T10:11:34.285Z,46.70
2023-02-11T10:12:34.315Z,49.30
2023-02-11T10:13:34.251Z,42.80
2023-02-11T10:14:34.265Z,46.60
2023-02-11T10:15:34.243Z,47.20
2023-02-11T10:16:34.199Z,47.70
2023-02-11T10:17:34.181Z,49.30
2023-02-11T10:18:34.165Z,48.40
2023-02-11T10:19:34.169Z,46.30
2023-02-11T10:20:34.124Z,45.20
2023-02-11T10:21:35.111Z,48.40
2023-02-11T10:22:34.093Z,48.20
2023-02-11T10:23:34.084Z,46.20
2023-02-11T10:24:34.085Z,47.30
2023-02-11T10:25:34.040Z,48.00
2023-02-11T10:26:34.038Z,45.40
2023-02-11T10:27:34.015Z,46.60
2023-02-11T10:28:34.096Z,47.10
2023-02-11T10:29:34.010Z,46.80
2023-02-11T10:30:33.984Z,41.00
2023-02-11T10:31:34.024Z,41.60
2023-02-11T10:32:33.926Z,41.50
2023-02-11T10:33:33.915Z,42.50
2023-02-11T10:34:33.914Z,41.00
2023-02-11T10:35:33.873Z,42.40
2023-02-11T10:36:33.854Z,41.60
2023-02-11T10:37:33.840Z,42.40
2023-02-11T10:38:33.835Z,41.50
2023-02-11T10:39:33.825Z,42.30
2023-02-11T10:40:33.787Z,47.90
2023-02-11T10:41:33.782Z,46.00
2023-02-11T10:42:33.734Z,46.00
2023-02-11T10:43:33.716Z,43.10
2023-02-11T10:44:33.725Z,48.10
2023-02-11T10:45:33.677Z,46.00
2023-02-11T10:46:33.732Z,41.80
2023-02-11T10:47:33.649Z,45.60
2023-02-11T10:48:33.623Z,44.80
2023-02-11T10:49:33.633Z,47.40
2023-02-11T10:50:33.588Z,45.40
2023-02-11T10:51:33.581Z,42.60
2023-02-11T10:52:33.550Z,44.50
2023-02-11T10:53:33.538Z,46.30
2023-02-11T10:54:33.546Z,42.50
2023-02-11T10:55:33.496Z,42.90
2023-02-11T10:56:33.489Z,42.30
2023-02-11T10:57:33.452Z,47.20
2023-02-11T10:58:34.446Z,41.80
2023-02-11T10:59:33.461Z,41.90
2023-02-11T11:00:33.411Z,47.70
2023-02-11T11:01:33.460Z,46.00
2023-02-11T11:02:33.392Z,44.30
2023-02-11T11:03:33.358Z,44.80
2023-02-11T11:04:33.409Z,42.60
2023-02-11T11:05:33.325Z,45.80
2023-02-11T11:06:33.312Z,40.10
2023-02-11T11:07:33.293Z,43.90
2023-02-11T11:08:33.270Z,41.30
2023-02-11T11:09:33.287Z,40.20
2023-02-11T11:10:33.234Z,43.70
2023-02-11T11:11:33.214Z,41.50
2023-02-11T11:12:33.232Z,52.20
2023-02-11T11:13:33.179Z,45.90
2023-02-11T11:14:33.198Z,45.20
2023-02-11T11:15:33.147Z,46.90
2023-02-11T11:16:33.132Z,40.60
2023-02-11T11:17:33.113Z,41.80
2023-02-11T11:18:33.094Z,44.50
2023-02-11T11:19:33.114Z,40.80
2023-02-11T11:20:33.061Z,42.40
2023-02-11T11:21:33.052Z,45.00
2023-02-11T11:22:33.051Z,41.60
2023-02-11T11:23:33.007Z,41.70
2023-02-11T11:24:32.983Z,42.80
2023-02-11T11:25:32.969Z,42.20
2023-02-11T11:26:32.951Z,39.80
2023-02-11T11:27:32.963Z,40.80
2023-02-11T11:28:32.973Z,41.70
2023-02-11T11:29:32.900Z,39.40
2023-02-11T11:30:32.978Z,38.70
2023-02-11T11:31:33.039Z,40.20
2023-02-11T11:32:32.877Z,40.70
2023-02-11T11:33:32.826Z,37.50
2023-02-11T11:34:32.816Z,39.40
2023-02-11T11:35:32.822Z,38.90
2023-02-11T11:36:32.771Z,36.60
2023-02-11T11:37:32.774Z,37.40
2023-02-11T11:38:32.738Z,39.50
2023-02-11T11:39:32.733Z,37.80
2023-02-11T11:40:32.728Z,36.20
2023-02-11T11:41:32.677Z,35.30
2023-02-11T11:42:32.658Z,34.30
2023-02-11T11:43:32.644Z,35.40
2023-02-11T11:44:32.628Z,38.40
2023-02-11T11:45:32.638Z,30.00
2023-02-11T11:46:32.669Z,26.70
2023-02-11T11:47:32.577Z,27.10
2023-02-11T11:48:32.565Z,28.80
2023-02-11T11:49:32.539Z,29.20
2023-02-11T11:50:32.557Z,30.40
2023-02-11T11:51:32.513Z,29.90
2023-02-11T11:52:32.493Z,29.80
2023-02-11T11:53:32.475Z,27.80
2023-02-11T11:54:32.456Z,30.70
2023-02-11T11:55:32.466Z,33.10
2023-02-11T11:56:32.418Z,30.70
2023-02-11T11:57:32.402Z,23.90
2023-02-11T11:58:32.385Z,24.50
2023-02-11T11:59:32.367Z,22.80
2023-02-11T12:00:32.401Z,23.00
2023-02-11T12:01:32.360Z,22.10
2023-02-11T12:02:32.315Z,21.90
2023-02-11T12:03:32.297Z,22.30
2023-02-11T12:04:32.284Z,21.40
2023-02-11T12:05:32.307Z,23.50
2023-02-11T12:06:32.251Z,20.60
2023-02-11T12:07:32.232Z,20.70
2023-02-11T12:08:32.215Z,20.90
2023-02-11T12:09:32.200Z,20.50
2023-02-11T12:10:32.280Z,19.50
2023-02-11T12:11:32.174Z,20.90
2023-02-11T12:12:32.167Z,21.70
2023-02-11T12:13:32.176Z,22.00
2023-02-11T12:14:32.106Z,22.20
2023-02-11T12:15:32.127Z,21.60
2023-02-11T12:16:32.108Z,22.10
2023-02-11T12:17:32.057Z,23.60
2023-02-11T12:18:32.041Z,21.60
2023-02-11T12:19:32.046Z,22.80
2023-02-11T12:20:32.056Z,21.70
2023-02-11T12:21:32.035Z,24.10
2023-02-11T12:22:31.974Z,25.70
2023-02-11T12:23:31.951Z,22.70
2023-02-11T12:24:31.940Z,23.10
2023-02-11T12:25:31.958Z,23.10
2023-02-11T12:26:31.899Z,23.60
2023-02-11T12:27:31.887Z,24.30
2023-02-11T12:28:31.905Z,25.10
2023-02-11T12:29:31.845Z,23.20
2023-02-11T12:30:31.883Z,26.10
2023-02-11T12:31:31.890Z,22.80
2023-02-11T12:32:31.807Z,23.80
2023-02-11T12:33:31.802Z,23.50
2023-02-11T12:34:31.770Z,26.40
2023-02-11T12:35:31.770Z,25.50
2023-02-11T12:36:31.727Z,24.30
2023-02-11T12:37:31.713Z,28.40
2023-02-11T12:38:31.692Z,23.60
2023-02-11T12:39:31.675Z,25.80
2023-02-11T12:40:31.683Z,26.30
2023-02-11T12:41:31.639Z,26.90
2023-02-11T12:42:31.622Z,26.70
2023-02-11T12:43:31.602Z,27.80
2023-02-11T12:44:31.588Z,28.40
2023-02-11T12:45:31.621Z,26.10
2023-02-11T12:46:31.555Z,26.40
2023-02-11T12:47:31.533Z,26.00
2023-02-11T12:48:33.062Z,26.10
2023-02-11T12:49:31.501Z,24.00
2023-02-11T12:50:31.517Z,25.90
2023-02-11T12:51:31.469Z,24.80
2023-02-11T12:52:31.450Z,28.50